sensor_id;sensor_type;location;lat;lon;timestamp;P1;durP1;ratioP1;P2;durP2;ratioP2
28304;SDS011;15569;42.652;23.040;2023-11-21T00:01:55;31.58;;;10.50;;
28304;SDS011;15569;42.652;23.040;2023-11-21T00:04:22;21.73;;;9.50;;
28304;SDS011;15569;42.652;23.040;2023-11-21T00:06:47;22.73;;;8.38;;
28304;SDS011;15569;42.652;23.040;2023-11-21T00:09:13;26.25;;;8.95;;
28304;SDS011;15569;42.652;23.040;2023-11-21T00:11:40;22.25;;;8.48;;
28304;SDS011;15569;42.652;23.040;2023-11-21T00:14:06;24.33;;;10.07;;
28304;SDS011;15569;42.652;23.040;2023-11-21T00:16:32;24.77;;;10.52;;
28304;SDS011;15569;42.652;23.040;2023-11-21T00:18:57;23.52;;;10.85;;
28304;SDS011;15569;42.652;23.040;2023-11-21T00:21:22;25.05;;;11.25;;
28304;SDS011;15569;42.652;23.040;2023-11-21T00:23:48;20.75;;;9.60;;
28304;SDS011;15569;42.652;23.040;2023-11-21T00:26:13;39.70;;;14.18;;
28304;SDS011;15569;42.652;23.040;2023-11-21T00:28:39;25.17;;;11.80;;
28304;SDS011;15569;42.652;23.040;2023-11-21T00:31:05;23.08;;;11.45;;
28304;SDS011;15569;42.652;23.040;2023-11-21T00:33:30;30.27;;;11.48;;
28304;SDS011;15569;42.652;23.040;2023-11-21T00:35:55;19.02;;;10.77;;
28304;SDS011;15569;42.652;23.040;2023-11-21T00:38:21;22.02;;;11.10;;
28304;SDS011;15569;42.652;23.040;2023-11-21T00:40:47;16.40;;;9.45;;
28304;SDS011;15569;42.652;23.040;2023-11-21T00:43:12;25.88;;;9.73;;
28304;SDS011;15569;42.652;23.040;2023-11-21T00:45:37;21.38;;;10.77;;
28304;SDS011;15569;42.652;23.040;2023-11-21T00:48:05;21.52;;;10.70;;
28304;SDS011;15569;42.652;23.040;2023-11-21T00:50:30;21.17;;;9.98;;
28304;SDS011;15569;42.652;23.040;2023-11-21T00:52:56;22.20;;;10.30;;
28304;SDS011;15569;42.652;23.040;2023-11-21T00:55:21;23.30;;;12.23;;
28304;SDS011;15569;42.652;23.040;2023-11-21T00:57:47;22.70;;;10.15;;
28304;SDS011;15569;42.652;23.040;2023-11-21T01:00:13;20.80;;;10.68;;
28304;SDS011;15569;42.652;23.040;2023-11-21T01:02:42;25.70;;;11.30;;
28304;SDS011;15569;42.652;23.040;2023-11-21T01:05:09;23.40;;;11.40;;
28304;SDS011;15569;42.652;23.040;2023-11-21T01:07:35;18.40;;;10.68;;
28304;SDS011;15569;42.652;23.040;2023-11-21T01:10:01;19.15;;;10.70;;
28304;SDS011;15569;42.652;23.040;2023-11-21T01:12:27;29.95;;;11.02;;
28304;SDS011;15569;42.652;23.040;2023-11-21T01:14:53;24.60;;;11.50;;
28304;SDS011;15569;42.652;23.040;2023-11-21T01:17:19;25.85;;;10.98;;
28304;SDS011;15569;42.652;23.040;2023-11-21T01:19:44;20.88;;;10.05;;
28304;SDS011;15569;42.652;23.040;2023-11-21T01:22:09;26.73;;;12.30;;
28304;SDS011;15569;42.652;23.040;2023-11-21T01:24:37;26.80;;;11.77;;
28304;SDS011;15569;42.652;23.040;2023-11-21T01:27:02;20.83;;;10.25;;
28304;SDS011;15569;42.652;23.040;2023-11-21T01:29:29;20.60;;;11.10;;
28304;SDS011;15569;42.652;23.040;2023-11-21T01:31:55;24.50;;;10.25;;
28304;SDS011;15569;42.652;23.040;2023-11-21T01:34:22;29.35;;;12.32;;
28304;SDS011;15569;42.652;23.040;2023-11-21T01:36:48;24.27;;;10.88;;
28304;SDS011;15569;42.652;23.040;2023-11-21T01:39:14;23.83;;;10.98;;
28304;SDS011;15569;42.652;23.040;2023-11-21T01:41:41;31.08;;;10.30;;
28304;SDS011;15569;42.652;23.040;2023-11-21T01:44:09;25.25;;;10.05;;
28304;SDS011;15569;42.652;23.040;2023-11-21T01:46:35;27.20;;;10.52;;
28304;SDS011;15569;42.652;23.040;2023-11-21T01:49:00;28.15;;;12.20;;
28304;SDS011;15569;42.652;23.040;2023-11-21T01:51:26;31.50;;;11.45;;
28304;SDS011;15569;42.652;23.040;2023-11-21T01:53:51;32.28;;;12.73;;
28304;SDS011;15569;42.652;23.040;2023-11-21T01:56:17;25.20;;;12.55;;
28304;SDS011;15569;42.652;23.040;2023-11-21T01:58:43;29.00;;;11.32;;
28304;SDS011;15569;42.652;23.040;2023-11-21T02:03:38;24.48;;;7.95;;
28304;SDS011;15569;42.652;23.040;2023-11-21T02:06:03;24.67;;;10.02;;
28304;SDS011;15569;42.652;23.040;2023-11-21T02:08:30;21.27;;;8.65;;
28304;SDS011;15569;42.652;23.040;2023-11-21T02:10:56;75.43;;;25.42;;
28304;SDS011;15569;42.652;23.040;2023-11-21T02:13:22;138.75;;;31.80;;
28304;SDS011;15569;42.652;23.040;2023-11-21T02:15:48;41.40;;;14.05;;
28304;SDS011;15569;42.652;23.040;2023-11-21T02:18:17;28.70;;;9.73;;
28304;SDS011;15569;42.652;23.040;2023-11-21T02:20:42;25.70;;;8.52;;
28304;SDS011;15569;42.652;23.040;2023-11-21T02:23:08;23.55;;;7.53;;
28304;SDS011;15569;42.652;23.040;2023-11-21T02:25:33;22.83;;;8.57;;
28304;SDS011;15569;42.652;23.040;2023-11-21T02:27:59;30.23;;;9.70;;
28304;SDS011;15569;42.652;23.040;2023-11-21T02:30:26;21.48;;;8.25;;
28304;SDS011;15569;42.652;23.040;2023-11-21T02:32:53;29.63;;;9.95;;
28304;SDS011;15569;42.652;23.040;2023-11-21T02:35:18;25.58;;;9.52;;
28304;SDS011;15569;42.652;23.040;2023-11-21T02:37:46;25.63;;;7.45;;
28304;SDS011;15569;42.652;23.040;2023-11-21T02:40:12;16.52;;;8.10;;
28304;SDS011;15569;42.652;23.040;2023-11-21T02:42:38;19.00;;;8.52;;
28304;SDS011;15569;42.652;23.040;2023-11-21T02:45:05;29.15;;;8.60;;
28304;SDS011;15569;42.652;23.040;2023-11-21T02:47:32;25.13;;;8.77;;
28304;SDS011;15569;42.652;23.040;2023-11-21T02:49:58;27.42;;;8.70;;
28304;SDS011;15569;42.652;23.040;2023-11-21T02:52:24;20.25;;;8.70;;
28304;SDS011;15569;42.652;23.040;2023-11-21T02:54:50;26.17;;;9.25;;
28304;SDS011;15569;42.652;23.040;2023-11-21T02:57:16;30.50;;;9.57;;
28304;SDS011;15569;42.652;23.040;2023-11-21T02:59:41;27.33;;;8.77;;
28304;SDS011;15569;42.652;23.040;2023-11-21T03:02:07;21.33;;;8.23;;
28304;SDS011;15569;42.652;23.040;2023-11-21T03:04:33;23.02;;;10.18;;
28304;SDS011;15569;42.652;23.040;2023-11-21T03:07:00;24.38;;;8.25;;
28304;SDS011;15569;42.652;23.040;2023-11-21T03:09:25;20.55;;;8.48;;
28304;SDS011;15569;42.652;23.040;2023-11-21T03:11:51;18.48;;;8.27;;
28304;SDS011;15569;42.652;23.040;2023-11-21T03:14:18;23.85;;;8.45;;
28304;SDS011;15569;42.652;23.040;2023-11-21T03:16:43;19.92;;;8.32;;
28304;SDS011;15569;42.652;23.040;2023-11-21T03:19:10;23.85;;;9.20;;
28304;SDS011;15569;42.652;23.040;2023-11-21T03:21:36;17.00;;;7.85;;
28304;SDS011;15569;42.652;23.040;2023-11-21T03:24:02;27.23;;;9.23;;
28304;SDS011;15569;42.652;23.040;2023-11-21T03:26:27;26.85;;;8.27;;
28304;SDS011;15569;42.652;23.040;2023-11-21T03:28:53;26.85;;;8.05;;
28304;SDS011;15569;42.652;23.040;2023-11-21T03:31:18;24.88;;;8.30;;
28304;SDS011;15569;42.652;23.040;2023-11-21T03:33:44;16.52;;;7.68;;
28304;SDS011;15569;42.652;23.040;2023-11-21T03:36:10;32.42;;;8.43;;
28304;SDS011;15569;42.652;23.040;2023-11-21T03:38:36;27.17;;;8.90;;
28304;SDS011;15569;42.652;23.040;2023-11-21T03:41:02;24.90;;;10.50;;
28304;SDS011;15569;42.652;23.040;2023-11-21T03:43:28;28.75;;;11.20;;
28304;SDS011;15569;42.652;23.040;2023-11-21T03:45:54;35.90;;;12.02;;
28304;SDS011;15569;42.652;23.040;2023-11-21T03:48:19;24.17;;;10.23;;
28304;SDS011;15569;42.652;23.040;2023-11-21T03:50:45;31.15;;;10.68;;
28304;SDS011;15569;42.652;23.040;2023-11-21T03:53:12;36.17;;;11.57;;
28304;SDS011;15569;42.652;23.040;2023-11-21T03:55:37;32.95;;;11.77;;
28304;SDS011;15569;42.652;23.040;2023-11-21T03:58:03;25.80;;;10.98;;
28304;SDS011;15569;42.652;23.040;2023-11-21T04:00:28;33.42;;;11.45;;
28304;SDS011;15569;42.652;23.040;2023-11-21T04:02:53;29.45;;;12.23;;
28304;SDS011;15569;42.652;23.040;2023-11-21T04:05:19;36.20;;;12.40;;
28304;SDS011;15569;42.652;23.040;2023-11-21T04:07:47;25.63;;;10.43;;
28304;SDS011;15569;42.652;23.040;2023-11-21T04:10:15;27.80;;;11.25;;
28304;SDS011;15569;42.652;23.040;2023-11-21T04:12:40;33.60;;;13.38;;
28304;SDS011;15569;42.652;23.040;2023-11-21T04:15:06;28.20;;;13.75;;
28304;SDS011;15569;42.652;23.040;2023-11-21T04:17:33;36.15;;;13.40;;
28304;SDS011;15569;42.652;23.040;2023-11-21T04:20:00;31.60;;;12.05;;
28304;SDS011;15569;42.652;23.040;2023-11-21T04:22:25;31.13;;;12.98;;
28304;SDS011;15569;42.652;23.040;2023-11-21T04:24:50;23.50;;;11.45;;
28304;SDS011;15569;42.652;23.040;2023-11-21T04:27:16;32.13;;;13.90;;
28304;SDS011;15569;42.652;23.040;2023-11-21T04:29:43;35.88;;;13.15;;
28304;SDS011;15569;42.652;23.040;2023-11-21T04:32:09;33.00;;;11.65;;
28304;SDS011;15569;42.652;23.040;2023-11-21T04:34:34;27.98;;;13.15;;
28304;SDS011;15569;42.652;23.040;2023-11-21T04:37:00;34.45;;;15.07;;
28304;SDS011;15569;42.652;23.040;2023-11-21T04:39:26;36.83;;;14.55;;
28304;SDS011;15569;42.652;23.040;2023-11-21T04:41:51;37.60;;;15.90;;
28304;SDS011;15569;42.652;23.040;2023-11-21T04:44:17;49.28;;;16.05;;
28304;SDS011;15569;42.652;23.040;2023-11-21T04:46:42;45.45;;;17.05;;
28304;SDS011;15569;42.652;23.040;2023-11-21T04:49:08;52.60;;;17.13;;
28304;SDS011;15569;42.652;23.040;2023-11-21T04:51:34;49.53;;;18.40;;
28304;SDS011;15569;42.652;23.040;2023-11-21T04:53:59;67.53;;;36.00;;
28304;SDS011;15569;42.652;23.040;2023-11-21T04:56:24;78.40;;;39.08;;
28304;SDS011;15569;42.652;23.040;2023-11-21T04:58:50;60.10;;;25.10;;
28304;SDS011;15569;42.652;23.040;2023-11-21T05:01:15;55.40;;;21.52;;
28304;SDS011;15569;42.652;23.040;2023-11-21T05:03:41;53.15;;;23.02;;
28304;SDS011;15569;42.652;23.040;2023-11-21T05:06:06;42.38;;;19.73;;
28304;SDS011;15569;42.652;23.040;2023-11-21T05:08:35;44.95;;;19.88;;
28304;SDS011;15569;42.652;23.040;2023-11-21T05:11:02;47.08;;;19.30;;
28304;SDS011;15569;42.652;23.040;2023-11-21T05:13:27;74.18;;;28.77;;
28304;SDS011;15569;42.652;23.040;2023-11-21T05:15:56;65.10;;;25.98;;
28304;SDS011;15569;42.652;23.040;2023-11-21T05:18:24;57.42;;;26.88;;
28304;SDS011;15569;42.652;23.040;2023-11-21T05:20:52;61.35;;;26.80;;
28304;SDS011;15569;42.652;23.040;2023-11-21T05:23:18;55.38;;;22.70;;
28304;SDS011;15569;42.652;23.040;2023-11-21T05:25:44;46.75;;;21.25;;
28304;SDS011;15569;42.652;23.040;2023-11-21T05:28:11;47.42;;;19.65;;
28304;SDS011;15569;42.652;23.040;2023-11-21T05:30:36;48.90;;;21.95;;
28304;SDS011;15569;42.652;23.040;2023-11-21T05:33:03;48.42;;;21.20;;
28304;SDS011;15569;42.652;23.040;2023-11-21T05:35:28;43.38;;;17.70;;
28304;SDS011;15569;42.652;23.040;2023-11-21T05:37:54;45.83;;;20.17;;
28304;SDS011;15569;42.652;23.040;2023-11-21T05:40:19;44.40;;;18.85;;
28304;SDS011;15569;42.652;23.040;2023-11-21T05:42:47;49.33;;;19.73;;
28304;SDS011;15569;42.652;23.040;2023-11-21T05:45:13;43.35;;;18.67;;
28304;SDS011;15569;42.652;23.040;2023-11-21T05:47:40;45.47;;;19.48;;
28304;SDS011;15569;42.652;23.040;2023-11-21T05:50:06;54.70;;;18.08;;
28304;SDS011;15569;42.652;23.040;2023-11-21T05:52:37;42.28;;;17.02;;
28304;SDS011;15569;42.652;23.040;2023-11-21T05:55:04;37.75;;;18.35;;
28304;SDS011;15569;42.652;23.040;2023-11-21T05:57:32;41.05;;;19.52;;
28304;SDS011;15569;42.652;23.040;2023-11-21T06:00:03;51.45;;;20.30;;
28304;SDS011;15569;42.652;23.040;2023-11-21T06:02:45;68.78;;;32.28;;
28304;SDS011;15569;42.652;23.040;2023-11-21T06:05:12;86.72;;;38.35;;
28304;SDS011;15569;42.652;23.040;2023-11-21T06:07:37;99.53;;;44.03;;
28304;SDS011;15569;42.652;23.040;2023-11-21T06:10:07;68.03;;;32.40;;
28304;SDS011;15569;42.652;23.040;2023-11-21T06:12:36;58.70;;;29.60;;
28304;SDS011;15569;42.652;23.040;2023-11-21T06:15:03;66.70;;;27.80;;
28304;SDS011;15569;42.652;23.040;2023-11-21T06:17:30;59.78;;;28.83;;
28304;SDS011;15569;42.652;23.040;2023-11-21T06:20:01;68.88;;;32.28;;
28304;SDS011;15569;42.652;23.040;2023-11-21T06:22:34;68.50;;;33.15;;
28304;SDS011;15569;42.652;23.040;2023-11-21T06:25:01;58.22;;;26.98;;
28304;SDS011;15569;42.652;23.040;2023-11-21T06:27:27;59.13;;;25.55;;
28304;SDS011;15569;42.652;23.040;2023-11-21T06:29:53;124.68;;;52.38;;
28304;SDS011;15569;42.652;23.040;2023-11-21T06:32:18;96.75;;;42.88;;
28304;SDS011;15569;42.652;23.040;2023-11-21T06:34:45;75.32;;;32.78;;
28304;SDS011;15569;42.652;23.040;2023-11-21T06:37:10;85.65;;;34.60;;
28304;SDS011;15569;42.652;23.040;2023-11-21T06:39:37;170.45;;;64.45;;
28304;SDS011;15569;42.652;23.040;2023-11-21T06:42:03;95.50;;;39.42;;
28304;SDS011;15569;42.652;23.040;2023-11-21T06:44:29;100.60;;;43.22;;
28304;SDS011;15569;42.652;23.040;2023-11-21T06:46:54;79.30;;;34.40;;
28304;SDS011;15569;42.652;23.040;2023-11-21T06:49:20;82.10;;;33.40;;
28304;SDS011;15569;42.652;23.040;2023-11-21T06:51:45;89.53;;;36.75;;
28304;SDS011;15569;42.652;23.040;2023-11-21T06:54:10;87.07;;;36.40;;
28304;SDS011;15569;42.652;23.040;2023-11-21T06:56:36;84.00;;;34.22;;
28304;SDS011;15569;42.652;23.040;2023-11-21T06:59:01;84.40;;;38.05;;
28304;SDS011;15569;42.652;23.040;2023-11-21T07:01:28;88.93;;;35.83;;
28304;SDS011;15569;42.652;23.040;2023-11-21T07:03:53;88.57;;;37.05;;
28304;SDS011;15569;42.652;23.040;2023-11-21T07:06:18;94.47;;;37.97;;
28304;SDS011;15569;42.652;23.040;2023-11-21T07:08:44;95.35;;;41.55;;
28304;SDS011;15569;42.652;23.040;2023-11-21T07:11:09;86.55;;;37.38;;
28304;SDS011;15569;42.652;23.040;2023-11-21T07:13:34;84.72;;;39.10;;
28304;SDS011;15569;42.652;23.040;2023-11-21T07:16:00;103.53;;;41.22;;
28304;SDS011;15569;42.652;23.040;2023-11-21T07:18:25;74.35;;;36.03;;
28304;SDS011;15569;42.652;23.040;2023-11-21T07:20:51;80.50;;;33.53;;
28304;SDS011;15569;42.652;23.040;2023-11-21T07:23:17;71.93;;;33.45;;
28304;SDS011;15569;42.652;23.040;2023-11-21T07:25:42;59.58;;;25.63;;
28304;SDS011;15569;42.652;23.040;2023-11-21T07:28:08;55.75;;;19.75;;
28304;SDS011;15569;42.652;23.040;2023-11-21T07:30:34;47.83;;;22.63;;
28304;SDS011;15569;42.652;23.040;2023-11-21T07:32:59;49.60;;;24.85;;
28304;SDS011;15569;42.652;23.040;2023-11-21T07:35:24;51.72;;;20.08;;
28304;SDS011;15569;42.652;23.040;2023-11-21T07:37:50;58.25;;;23.42;;
28304;SDS011;15569;42.652;23.040;2023-11-21T07:40:15;49.40;;;17.73;;
28304;SDS011;15569;42.652;23.040;2023-11-21T07:42:41;56.70;;;24.90;;
28304;SDS011;15569;42.652;23.040;2023-11-21T07:45:07;49.80;;;21.38;;
28304;SDS011;15569;42.652;23.040;2023-11-21T07:47:33;41.35;;;19.05;;
28304;SDS011;15569;42.652;23.040;2023-11-21T07:49:59;42.50;;;19.73;;
28304;SDS011;15569;42.652;23.040;2023-11-21T07:52:25;43.03;;;20.23;;
28304;SDS011;15569;42.652;23.040;2023-11-21T07:54:50;39.97;;;17.92;;
28304;SDS011;15569;42.652;23.040;2023-11-21T07:57:16;53.33;;;22.63;;
28304;SDS011;15569;42.652;23.040;2023-11-21T07:59:41;42.15;;;21.17;;
28304;SDS011;15569;42.652;23.040;2023-11-21T08:02:07;38.38;;;18.85;;
28304;SDS011;15569;42.652;23.040;2023-11-21T08:04:32;45.47;;;20.27;;
28304;SDS011;15569;42.652;23.040;2023-11-21T08:06:59;38.17;;;19.80;;
28304;SDS011;15569;42.652;23.040;2023-11-21T08:09:24;50.20;;;20.15;;
28304;SDS011;15569;42.652;23.040;2023-11-21T08:11:50;54.70;;;21.15;;
28304;SDS011;15569;42.652;23.040;2023-11-21T08:14:17;52.58;;;22.08;;
28304;SDS011;15569;42.652;23.040;2023-11-21T08:16:42;29.30;;;16.05;;
28304;SDS011;15569;42.652;23.040;2023-11-21T08:19:07;32.20;;;15.00;;
28304;SDS011;15569;42.652;23.040;2023-11-21T08:21:34;19.38;;;10.88;;
28304;SDS011;15569;42.652;23.040;2023-11-21T08:24:01;26.98;;;11.73;;
28304;SDS011;15569;42.652;23.040;2023-11-21T08:26:29;23.92;;;8.32;;
28304;SDS011;15569;42.652;23.040;2023-11-21T08:28:54;16.88;;;6.60;;
28304;SDS011;15569;42.652;23.040;2023-11-21T08:31:25;10.68;;;5.15;;
28304;SDS011;15569;42.652;23.040;2023-11-21T08:33:50;9.03;;;4.27;;
28304;SDS011;15569;42.652;23.040;2023-11-21T08:36:16;10.93;;;5.65;;
28304;SDS011;15569;42.652;23.040;2023-11-21T08:41:10;13.93;;;6.70;;
28304;SDS011;15569;42.652;23.040;2023-11-21T08:43:36;18.55;;;6.85;;
28304;SDS011;15569;42.652;23.040;2023-11-21T08:46:04;21.20;;;7.00;;
28304;SDS011;15569;42.652;23.040;2023-11-21T08:48:31;13.48;;;6.30;;
28304;SDS011;15569;42.652;23.040;2023-11-21T08:50:56;11.95;;;6.93;;
28304;SDS011;15569;42.652;23.040;2023-11-21T08:53:21;21.83;;;9.18;;
28304;SDS011;15569;42.652;23.040;2023-11-21T08:55:47;21.42;;;8.93;;
28304;SDS011;15569;42.652;23.040;2023-11-21T08:58:13;17.98;;;7.50;;
28304;SDS011;15569;42.652;23.040;2023-11-21T09:00:39;24.50;;;10.93;;
28304;SDS011;15569;42.652;23.040;2023-11-21T09:03:05;20.02;;;7.32;;
28304;SDS011;15569;42.652;23.040;2023-11-21T09:05:33;14.80;;;8.15;;
28304;SDS011;15569;42.652;23.040;2023-11-21T09:07:59;14.70;;;7.10;;
28304;SDS011;15569;42.652;23.040;2023-11-21T09:10:24;15.52;;;8.10;;
28304;SDS011;15569;42.652;23.040;2023-11-21T09:12:50;21.42;;;8.20;;
28304;SDS011;15569;42.652;23.040;2023-11-21T09:15:17;16.63;;;8.57;;
28304;SDS011;15569;42.652;23.040;2023-11-21T09:17:42;21.65;;;9.65;;
28304;SDS011;15569;42.652;23.040;2023-11-21T09:20:09;20.05;;;9.40;;
28304;SDS011;15569;42.652;23.040;2023-11-21T09:22:35;21.48;;;8.82;;
28304;SDS011;15569;42.652;23.040;2023-11-21T09:25:01;21.88;;;8.07;;
28304;SDS011;15569;42.652;23.040;2023-11-21T09:27:30;22.67;;;9.18;;
28304;SDS011;15569;42.652;23.040;2023-11-21T09:29:55;18.77;;;7.47;;
28304;SDS011;15569;42.652;23.040;2023-11-21T09:32:23;18.92;;;8.25;;
28304;SDS011;15569;42.652;23.040;2023-11-21T09:34:49;20.02;;;7.70;;
28304;SDS011;15569;42.652;23.040;2023-11-21T09:37:15;13.23;;;6.80;;
28304;SDS011;15569;42.652;23.040;2023-11-21T09:39:40;18.23;;;6.30;;
28304;SDS011;15569;42.652;23.040;2023-11-21T09:42:13;15.50;;;6.35;;
28304;SDS011;15569;42.652;23.040;2023-11-21T09:44:54;18.40;;;6.07;;
28304;SDS011;15569;42.652;23.040;2023-11-21T09:47:26;31.35;;;8.20;;
28304;SDS011;15569;42.652;23.040;2023-11-21T09:49:53;24.27;;;10.38;;
28304;SDS011;15569;42.652;23.040;2023-11-21T09:52:24;33.28;;;7.53;;
28304;SDS011;15569;42.652;23.040;2023-11-21T09:54:54;18.60;;;6.88;;
28304;SDS011;15569;42.652;23.040;2023-11-21T09:57:24;30.33;;;10.65;;
28304;SDS011;15569;42.652;23.040;2023-11-21T09:59:54;27.38;;;8.25;;
28304;SDS011;15569;42.652;23.040;2023-11-21T10:02:27;22.33;;;9.93;;
28304;SDS011;15569;42.652;23.040;2023-11-21T10:04:57;26.90;;;14.95;;
28304;SDS011;15569;42.652;23.040;2023-11-21T10:07:25;22.88;;;7.68;;
28304;SDS011;15569;42.652;23.040;2023-11-21T10:09:51;25.05;;;8.13;;
28304;SDS011;15569;42.652;23.040;2023-11-21T10:12:18;26.95;;;10.30;;
28304;SDS011;15569;42.652;23.040;2023-11-21T10:14:47;12.32;;;6.30;;
28304;SDS011;15569;42.652;23.040;2023-11-21T10:17:14;14.02;;;6.90;;
28304;SDS011;15569;42.652;23.040;2023-11-21T10:19:41;14.50;;;7.40;;
28304;SDS011;15569;42.652;23.040;2023-11-21T10:22:07;15.25;;;6.28;;
28304;SDS011;15569;42.652;23.040;2023-11-21T10:24:34;13.25;;;6.40;;
28304;SDS011;15569;42.652;23.040;2023-11-21T10:26:59;17.77;;;7.57;;
28304;SDS011;15569;42.652;23.040;2023-11-21T10:29:28;20.27;;;8.07;;
28304;SDS011;15569;42.652;23.040;2023-11-21T10:31:55;18.17;;;8.35;;
28304;SDS011;15569;42.652;23.040;2023-11-21T10:34:23;18.30;;;9.57;;
28304;SDS011;15569;42.652;23.040;2023-11-21T10:36:49;15.55;;;7.82;;
28304;SDS011;15569;42.652;23.040;2023-11-21T10:39:16;21.38;;;6.90;;
28304;SDS011;15569;42.652;23.040;2023-11-21T10:41:46;13.73;;;6.85;;
28304;SDS011;15569;42.652;23.040;2023-11-21T10:44:16;18.05;;;8.20;;
28304;SDS011;15569;42.652;23.040;2023-11-21T10:46:49;17.48;;;6.88;;
28304;SDS011;15569;42.652;23.040;2023-11-21T10:49:18;17.88;;;6.78;;
28304;SDS011;15569;42.652;23.040;2023-11-21T10:51:45;14.45;;;7.22;;
28304;SDS011;15569;42.652;23.040;2023-11-21T10:54:10;18.17;;;6.93;;
28304;SDS011;15569;42.652;23.040;2023-11-21T10:56:37;14.32;;;6.00;;
28304;SDS011;15569;42.652;23.040;2023-11-21T10:59:08;19.40;;;9.20;;
28304;SDS011;15569;42.652;23.040;2023-11-21T11:01:39;18.25;;;7.60;;
28304;SDS011;15569;42.652;23.040;2023-11-21T11:04:10;12.27;;;6.65;;
28304;SDS011;15569;42.652;23.040;2023-11-21T11:06:42;13.02;;;5.93;;
28304;SDS011;15569;42.652;23.040;2023-11-21T11:09:09;12.32;;;5.28;;
28304;SDS011;15569;42.652;23.040;2023-11-21T11:11:38;15.90;;;6.57;;
28304;SDS011;15569;42.652;23.040;2023-11-21T11:14:06;17.65;;;6.88;;
28304;SDS011;15569;42.652;23.040;2023-11-21T11:16:35;20.90;;;7.82;;
28304;SDS011;15569;42.652;23.040;2023-11-21T11:19:02;16.15;;;6.30;;
28304;SDS011;15569;42.652;23.040;2023-11-21T11:24:25;28.42;;;6.88;;
28304;SDS011;15569;42.652;23.040;2023-11-21T11:27:10;14.07;;;4.07;;
28304;SDS011;15569;42.652;23.040;2023-11-21T11:30:00;21.25;;;8.10;;
28304;SDS011;15569;42.652;23.040;2023-11-21T11:38:38;18.23;;;5.07;;
28304;SDS011;15569;42.652;23.040;2023-11-21T11:41:04;15.60;;;4.72;;
28304;SDS011;15569;42.652;23.040;2023-11-21T11:43:32;7.47;;;3.67;;
28304;SDS011;15569;42.652;23.040;2023-11-21T11:46:09;12.73;;;5.30;;
28304;SDS011;15569;42.652;23.040;2023-11-21T11:48:38;17.20;;;7.55;;
28304;SDS011;15569;42.652;23.040;2023-11-21T11:51:13;17.33;;;6.70;;
28304;SDS011;15569;42.652;23.040;2023-11-21T11:53:42;12.02;;;5.13;;
28304;SDS011;15569;42.652;23.040;2023-11-21T11:58:53;20.70;;;8.30;;
28304;SDS011;15569;42.652;23.040;2023-11-21T12:01:20;34.40;;;14.02;;
28304;SDS011;15569;42.652;23.040;2023-11-21T12:04:23;31.85;;;14.45;;
28304;SDS011;15569;42.652;23.040;2023-11-21T12:06:52;44.92;;;27.83;;
28304;SDS011;15569;42.652;23.040;2023-11-21T12:09:22;26.00;;;13.90;;
28304;SDS011;15569;42.652;23.040;2023-11-21T12:11:48;21.15;;;11.20;;
28304;SDS011;15569;42.652;23.040;2023-11-21T12:14:14;26.23;;;11.82;;
28304;SDS011;15569;42.652;23.040;2023-11-21T12:16:40;25.88;;;15.38;;
28304;SDS011;15569;42.652;23.040;2023-11-21T12:19:07;24.27;;;8.20;;
28304;SDS011;15569;42.652;23.040;2023-11-21T12:21:33;21.02;;;14.23;;
28304;SDS011;15569;42.652;23.040;2023-11-21T12:23:59;19.80;;;11.98;;
28304;SDS011;15569;42.652;23.040;2023-11-21T12:26:25;22.33;;;6.80;;
28304;SDS011;15569;42.652;23.040;2023-11-21T12:28:53;23.70;;;5.95;;
28304;SDS011;15569;42.652;23.040;2023-11-21T12:31:21;15.07;;;5.70;;
28304;SDS011;15569;42.652;23.040;2023-11-21T12:33:47;15.00;;;7.55;;
28304;SDS011;15569;42.652;23.040;2023-11-21T12:36:13;16.35;;;8.30;;
28304;SDS011;15569;42.652;23.040;2023-11-21T12:38:39;13.35;;;7.82;;
28304;SDS011;15569;42.652;23.040;2023-11-21T12:41:05;19.58;;;7.55;;
28304;SDS011;15569;42.652;23.040;2023-11-21T12:43:31;13.50;;;7.43;;
28304;SDS011;15569;42.652;23.040;2023-11-21T12:46:07;23.42;;;8.52;;
28304;SDS011;15569;42.652;23.040;2023-11-21T12:48:42;27.98;;;10.55;;
28304;SDS011;15569;42.652;23.040;2023-11-21T12:51:09;22.92;;;10.35;;
28304;SDS011;15569;42.652;23.040;2023-11-21T12:53:36;31.35;;;11.52;;
28304;SDS011;15569;42.652;23.040;2023-11-21T12:56:07;21.27;;;12.43;;
28304;SDS011;15569;42.652;23.040;2023-11-21T12:58:35;14.10;;;7.47;;
28304;SDS011;15569;42.652;23.040;2023-11-21T13:01:02;19.98;;;7.13;;
28304;SDS011;15569;42.652;23.040;2023-11-21T13:03:30;23.30;;;7.55;;
28304;SDS011;15569;42.652;23.040;2023-11-21T13:05:57;34.85;;;15.00;;
28304;SDS011;15569;42.652;23.040;2023-11-21T13:08:24;16.85;;;7.07;;
28304;SDS011;15569;42.652;23.040;2023-11-21T13:10:52;22.30;;;7.85;;
28304;SDS011;15569;42.652;23.040;2023-11-21T13:13:22;21.15;;;10.82;;
28304;SDS011;15569;42.652;23.040;2023-11-21T13:18:15;19.63;;;7.88;;
28304;SDS011;15569;42.652;23.040;2023-11-21T13:20:42;22.55;;;8.05;;
28304;SDS011;15569;42.652;23.040;2023-11-21T13:23:08;14.73;;;6.88;;
28304;SDS011;15569;42.652;23.040;2023-11-21T13:25:36;25.92;;;10.07;;
28304;SDS011;15569;42.652;23.040;2023-11-21T13:28:03;22.88;;;11.73;;
28304;SDS011;15569;42.652;23.040;2023-11-21T13:30:30;26.60;;;9.38;;
28304;SDS011;15569;42.652;23.040;2023-11-21T13:32:59;13.33;;;6.63;;
28304;SDS011;15569;42.652;23.040;2023-11-21T13:35:31;15.65;;;6.53;;
28304;SDS011;15569;42.652;23.040;2023-11-21T13:38:06;10.32;;;4.60;;
28304;SDS011;15569;42.652;23.040;2023-11-21T13:40:33;16.15;;;5.03;;
28304;SDS011;15569;42.652;23.040;2023-11-21T13:43:07;12.18;;;5.55;;
28304;SDS011;15569;42.652;23.040;2023-11-21T13:45:38;25.42;;;10.52;;
28304;SDS011;15569;42.652;23.040;2023-11-21T13:48:05;28.85;;;12.88;;
28304;SDS011;15569;42.652;23.040;2023-11-21T13:50:35;28.98;;;13.32;;
28304;SDS011;15569;42.652;23.040;2023-11-21T13:53:01;25.70;;;9.88;;
28304;SDS011;15569;42.652;23.040;2023-11-21T13:55:29;12.90;;;6.20;;
28304;SDS011;15569;42.652;23.040;2023-11-21T13:57:55;14.88;;;7.10;;
28304;SDS011;15569;42.652;23.040;2023-11-21T14:00:20;16.35;;;7.22;;
28304;SDS011;15569;42.652;23.040;2023-11-21T14:03:03;24.48;;;7.72;;
28304;SDS011;15569;42.652;23.040;2023-11-21T14:05:33;12.50;;;5.40;;
28304;SDS011;15569;42.652;23.040;2023-11-21T14:07:59;16.98;;;7.30;;
28304;SDS011;15569;42.652;23.040;2023-11-21T14:10:30;19.75;;;5.15;;
28304;SDS011;15569;42.652;23.040;2023-11-21T14:13:05;10.35;;;4.30;;
28304;SDS011;15569;42.652;23.040;2023-11-21T14:15:31;17.00;;;5.57;;
28304;SDS011;15569;42.652;23.040;2023-11-21T14:17:58;18.73;;;5.95;;
28304;SDS011;15569;42.652;23.040;2023-11-21T14:20:27;20.23;;;6.40;;
28304;SDS011;15569;42.652;23.040;2023-11-21T14:22:54;18.63;;;5.68;;
28304;SDS011;15569;42.652;23.040;2023-11-21T14:25:19;13.90;;;4.53;;
28304;SDS011;15569;42.652;23.040;2023-11-21T14:27:46;11.95;;;3.95;;
28304;SDS011;15569;42.652;23.040;2023-11-21T14:30:12;17.48;;;5.45;;
28304;SDS011;15569;42.652;23.040;2023-11-21T14:32:38;15.10;;;5.85;;